Portada
METAR-TAF:

METAR-TAF

Aeroports :

Batum, Geòrgia

latitud: 41-36-37N, longitud: 041-35-58E, altitud: 32 m

Observació

L'informe es va fer fa 16 minuts, a les 22:00 UTC
Vent calma
Temperatura 6°C
Humitat 93%
Pressió 1020 hPa
Visibilitat: 9000 m

METAR: UGSB 182200Z 00000KT 9000 NSC 06/05 Q1020 NOSIG

Hora: 02:16 (22:16 UTC)

Pronòstic

L'informe es va fer fa 5 hores i 16 minuts, a les 17:00 UTC
Pronòstic vàlid del 18 a les 18 UTC al 19 a les 18 UTC
Vent 7 kt del Est/Sud-Est
Visibilitat 10 km o més
sense núvols per sota de 1500 mi sense presència de cumulonimbus.
Evolucionant progressivament
l' 18 a les 20 UTC al 18 a les 21 UTC
Vent 17 kt del Sud-Est
Evolucionant progressivament
l' 19 a les 09 UTC al 19 a les 11 UTC
Vent 7 kt del Nord/Nord-Oest

TAF: UGSB 181700Z 1818/1918 12007KT CAVOK TX11/1911Z TN03/1902Z BECMG 1820/1821 13017KT BECMG 1909/1911 34007KT

Observacions i pronòstics meteorològics de més de 4000 aeroports (METAR i TAF).

Les estacions disponibles són els punts grocs i vermells al mapa.

Posi el ratolí al punt desitjat per veure el nom de l'estació.

Feu clic per veure les observacions i els pronòstics meteorològics.

Per canviar el mapa: feu clic els botons verds amb una creu de color negre per apropar; al botó verd amb un guió per allunyar la imatge; o en les fletxes verdes per a mapes adjacents.


METAR-TAF: